createdAt,value
2018-02-09T00:02:10.427Z,48.33
2018-02-09T00:04:37.876Z,45.58
2018-02-09T00:07:05.374Z,46.50
2018-02-09T00:09:32.953Z,46.57
2018-02-09T00:12:00.481Z,47.37
2018-02-09T00:14:28.027Z,46.60
2018-02-09T00:16:56.237Z,45.30
2018-02-09T00:19:23.908Z,46.00
2018-02-09T00:21:51.360Z,47.67
2018-02-09T00:24:18.820Z,47.07
2018-02-09T00:26:46.345Z,44.13
2018-02-09T00:29:13.930Z,48.27
2018-02-09T00:31:41.544Z,46.87
2018-02-09T00:34:09.005Z,46.73
2018-02-09T00:36:36.545Z,45.48
2018-02-09T00:39:04.023Z,45.55
2018-02-09T00:41:31.718Z,44.87
2018-02-09T00:43:59.993Z,46.50
2018-02-09T00:46:27.614Z,47.90
2018-02-09T00:48:55.089Z,45.07
2018-02-09T00:51:22.533Z,45.40
2018-02-09T00:53:50.483Z,45.80
2018-02-09T00:56:17.907Z,47.08
2018-02-09T00:58:45.523Z,48.13
2018-02-09T01:01:12.984Z,48.15
2018-02-09T01:03:40.441Z,46.30
2018-02-09T01:06:07.905Z,44.63
2018-02-09T01:08:35.352Z,44.72
2018-02-09T01:11:02.842Z,46.10
2018-02-09T01:13:30.509Z,45.43
2018-02-09T01:15:58.001Z,45.63
2018-02-09T01:18:25.797Z,42.57
2018-02-09T01:20:53.247Z,44.73
2018-02-09T01:23:20.760Z,46.90
2018-02-09T01:25:48.234Z,44.13
2018-02-09T01:28:15.657Z,48.00
2018-02-09T01:30:43.288Z,46.78
2018-02-09T01:33:10.735Z,45.63
2018-02-09T01:35:38.176Z,45.70
2018-02-09T01:38:05.633Z,45.44
2018-02-09T01:40:33.106Z,44.78
2018-02-09T01:43:00.902Z,44.20
2018-02-09T01:45:28.410Z,46.07
2018-02-09T01:47:55.841Z,46.17
2018-02-09T01:50:23.353Z,45.83
2018-02-09T01:52:50.800Z,47.07
2018-02-09T01:55:18.304Z,46.63
2018-02-09T01:57:45.815Z,46.40
2018-02-09T02:00:13.325Z,44.87
2018-02-09T02:02:40.824Z,46.37
2018-02-09T02:05:08.329Z,44.67
2018-02-09T02:07:35.786Z,44.20
2018-02-09T02:10:03.238Z,45.50
2018-02-09T02:12:30.737Z,45.43
2018-02-09T02:14:58.169Z,47.67
2018-02-09T02:17:25.612Z,44.80
2018-02-09T02:19:53.071Z,44.73
2018-02-09T02:22:20.626Z,44.50
2018-02-09T02:24:48.086Z,46.20
2018-02-09T02:27:15.531Z,51.60
2018-02-09T02:29:43.162Z,47.90
2018-02-09T02:32:10.632Z,44.53
2018-02-09T02:34:38.364Z,46.07
2018-02-09T02:37:05.838Z,46.00
2018-02-09T02:39:33.301Z,43.85
2018-02-09T02:42:00.939Z,46.90
2018-02-09T02:44:28.416Z,44.60
2018-02-09T02:46:55.855Z,46.37
2018-02-09T02:49:23.378Z,48.67
2018-02-09T02:51:50.812Z,46.60
2018-02-09T02:54:18.331Z,47.50
2018-02-09T02:56:45.757Z,46.13
2018-02-09T02:59:13.253Z,45.10
2018-02-09T03:01:40.696Z,45.37
2018-02-09T03:04:08.142Z,44.40
2018-02-09T03:06:35.563Z,45.88
2018-02-09T03:09:03.085Z,46.57
2018-02-09T03:11:30.501Z,46.53
2018-02-09T03:13:57.932Z,45.20
2018-02-09T03:16:25.377Z,45.83
2018-02-09T03:18:52.841Z,43.97
2018-02-09T03:21:20.289Z,46.97
2018-02-09T03:23:47.716Z,45.23
2018-02-09T03:26:15.171Z,47.90
2018-02-09T03:28:42.618Z,47.85
2018-02-09T03:31:10.064Z,46.83
2018-02-09T03:33:37.513Z,45.45
2018-02-09T03:36:05.121Z,49.53
2018-02-09T03:38:32.654Z,47.80
2018-02-09T03:41:00.621Z,45.80
2018-02-09T03:43:28.152Z,46.53
2018-02-09T03:45:55.610Z,44.50
2018-02-09T03:48:23.045Z,49.57
2018-02-09T03:50:50.517Z,47.58
2018-02-09T03:53:17.943Z,44.70
2018-02-09T03:55:45.370Z,45.20
2018-02-09T03:58:12.812Z,47.10
2018-02-09T04:00:40.266Z,43.90
2018-02-09T04:03:07.719Z,47.40
2018-02-09T04:05:35.149Z,46.53
2018-02-09T04:08:02.626Z,46.88
2018-02-09T04:10:30.867Z,49.22
2018-02-09T04:12:58.432Z,45.93
2018-02-09T04:15:25.854Z,47.47
2018-02-09T04:17:53.320Z,44.57
2018-02-09T04:20:20.769Z,46.63
2018-02-09T04:22:48.226Z,47.40
2018-02-09T04:25:15.665Z,48.60
2018-02-09T04:27:43.157Z,47.10
2018-02-09T04:30:10.604Z,46.17
2018-02-09T04:32:38.483Z,45.33
2018-02-09T04:35:05.946Z,47.62
2018-02-09T04:37:33.376Z,47.67
2018-02-09T04:40:00.945Z,46.72
2018-02-09T04:42:28.414Z,45.47
2018-02-09T04:44:55.849Z,44.87
2018-02-09T04:47:23.342Z,45.03
2018-02-09T04:49:50.834Z,45.53
2018-02-09T04:52:18.304Z,45.03
2018-02-09T04:54:45.790Z,46.53
2018-02-09T04:57:13.209Z,45.80
2018-02-09T04:59:40.658Z,47.40
2018-02-09T05:02:08.097Z,46.90
2018-02-09T05:04:35.553Z,46.90
2018-02-09T05:07:02.984Z,46.63
2018-02-09T05:09:31.349Z,50.15
2018-02-09T05:11:58.793Z,47.70
2018-02-09T05:14:26.236Z,46.57
2018-02-09T05:16:53.682Z,48.47
2018-02-09T05:19:21.132Z,46.83
2018-02-09T05:21:48.575Z,48.33
2018-02-09T05:24:15.993Z,48.20
2018-02-09T05:26:43.489Z,50.10
2018-02-09T05:29:10.908Z,45.95
2018-02-09T05:31:38.362Z,46.33
2018-02-09T05:34:05.833Z,47.40
2018-02-09T05:36:33.275Z,49.53
2018-02-09T05:39:01.206Z,46.85
2018-02-09T05:41:28.657Z,48.33
2018-02-09T05:43:56.182Z,48.80
2018-02-09T05:46:23.654Z,46.87
2018-02-09T05:48:51.088Z,48.60
2018-02-09T05:51:18.588Z,49.22
2018-02-09T05:53:46.134Z,48.80
2018-02-09T05:56:13.584Z,47.05
2018-02-09T05:58:41.017Z,46.88
2018-02-09T06:01:08.502Z,48.33
2018-02-09T06:03:35.936Z,49.45
2018-02-09T06:06:03.372Z,47.87
2018-02-09T06:08:31.534Z,45.60
2018-02-09T06:10:59.353Z,47.10
2018-02-09T06:13:26.809Z,45.77
2018-02-09T06:15:54.258Z,49.10
2018-02-09T06:18:21.711Z,45.30
2018-02-09T06:20:49.149Z,48.50
2018-02-09T06:23:16.592Z,47.90
2018-02-09T06:25:44.043Z,47.30
2018-02-09T06:28:11.529Z,48.17
2018-02-09T06:30:38.960Z,46.40
2018-02-09T06:33:06.458Z,45.90
2018-02-09T06:35:33.880Z,46.90
2018-02-09T06:38:01.382Z,47.20
2018-02-09T06:40:28.824Z,49.10
2018-02-09T06:42:56.274Z,48.77
2018-02-09T06:45:23.702Z,48.80
2018-02-09T06:47:51.124Z,47.43
2018-02-09T06:50:18.681Z,48.07
2018-02-09T06:52:46.262Z,48.50
2018-02-09T06:55:13.722Z,46.60
2018-02-09T06:57:46.726Z,48.00
2018-02-09T07:00:14.177Z,45.55
2018-02-09T07:02:41.650Z,50.00
2018-02-09T07:05:09.105Z,48.25
2018-02-09T07:07:36.531Z,45.47
2018-02-09T07:10:03.996Z,47.43
2018-02-09T07:12:31.552Z,49.57
2018-02-09T07:14:59.005Z,47.17
2018-02-09T07:17:26.523Z,47.30
2018-02-09T07:19:54.004Z,49.30
2018-02-09T07:22:21.631Z,47.93
2018-02-09T07:24:49.124Z,47.47
2018-02-09T07:27:16.546Z,46.40
2018-02-09T07:29:44.011Z,45.20
2018-02-09T07:32:11.477Z,48.67
2018-02-09T07:34:38.920Z,45.43
2018-02-09T07:37:06.416Z,47.58
2018-02-09T07:39:33.917Z,47.30
2018-02-09T07:42:05.722Z,49.17
2018-02-09T07:44:33.151Z,47.47
2018-02-09T07:47:00.596Z,46.37
2018-02-09T07:49:28.025Z,48.50
2018-02-09T07:51:55.488Z,49.78
2018-02-09T07:54:22.941Z,48.90
2018-02-09T07:56:51.229Z,48.73
2018-02-09T07:59:18.666Z,47.70
2018-02-09T08:01:46.108Z,47.17
2018-02-09T08:04:13.575Z,47.53
2018-02-09T08:06:41.017Z,45.15
2018-02-09T08:09:08.459Z,44.08
2018-02-09T08:11:35.984Z,46.83
2018-02-09T08:14:03.498Z,48.63
2018-02-09T08:16:31.761Z,47.22
2018-02-09T08:18:59.204Z,46.50
2018-02-09T08:21:26.660Z,47.37
2018-02-09T08:23:54.104Z,47.47
2018-02-09T08:26:21.615Z,47.20
2018-02-09T08:28:49.073Z,49.37
2018-02-09T08:31:16.569Z,45.90
2018-02-09T08:33:44.025Z,46.97
2018-02-09T08:36:11.461Z,47.30
2018-02-09T08:38:38.941Z,45.73
2018-02-09T08:41:06.368Z,48.30
2018-02-09T08:43:33.907Z,44.55
2018-02-09T08:46:01.880Z,48.05
2018-02-09T08:48:29.356Z,44.57
2018-02-09T08:50:56.785Z,44.20
2018-02-09T08:53:24.238Z,45.10
2018-02-09T08:55:51.690Z,45.17
2018-02-09T08:58:20.133Z,46.47
2018-02-09T09:00:47.706Z,44.58
2018-02-09T09:03:15.237Z,42.70
2018-02-09T09:05:42.676Z,42.35
2018-02-09T09:08:10.118Z,46.90
2018-02-09T09:10:37.556Z,44.90
2018-02-09T09:13:04.998Z,46.60
2018-02-09T09:15:37.258Z,43.63
2018-02-09T09:18:04.685Z,44.90
2018-02-09T09:20:32.241Z,43.77
2018-02-09T09:22:59.707Z,47.47
2018-02-09T09:25:27.174Z,43.27
2018-02-09T09:27:54.659Z,44.97
2018-02-09T09:30:22.209Z,45.50
2018-02-09T09:32:50.108Z,44.33
2018-02-09T09:35:17.573Z,41.10
2018-02-09T09:37:45.015Z,44.77
2018-02-09T09:40:12.529Z,44.10
2018-02-09T09:42:39.969Z,41.20
2018-02-09T09:45:07.487Z,43.90
2018-02-09T09:47:34.939Z,44.60
2018-02-09T09:50:02.390Z,46.53
2018-02-09T09:52:29.869Z,43.47
2018-02-09T09:54:57.312Z,44.57
2018-02-09T09:57:24.752Z,41.90
2018-02-09T09:59:52.192Z,44.73
2018-02-09T10:02:31.439Z,41.90
2018-02-09T10:04:58.859Z,44.90
2018-02-09T10:07:26.367Z,43.50
2018-02-09T10:09:53.835Z,43.70
2018-02-09T10:12:21.636Z,42.80
2018-02-09T10:14:49.081Z,40.90
2018-02-09T10:17:16.524Z,41.95
2018-02-09T10:19:43.958Z,41.10
2018-02-09T10:22:11.416Z,43.60
2018-02-09T10:24:38.849Z,38.40
2018-02-09T10:27:06.299Z,39.45
2018-02-09T10:29:33.800Z,41.83
2018-02-09T10:32:01.266Z,40.28
2018-02-09T10:34:28.700Z,38.60
2018-02-09T10:36:56.154Z,40.67
2018-02-09T10:39:23.620Z,39.67
2018-02-09T10:41:51.074Z,38.20
2018-02-09T10:44:18.529Z,41.58
2018-02-09T10:46:45.989Z,41.83
2018-02-09T10:49:13.432Z,40.93
2018-02-09T10:51:40.932Z,42.10
2018-02-09T10:54:08.456Z,39.10
2018-02-09T10:56:35.897Z,38.37
2018-02-09T10:59:03.347Z,37.23
2018-02-09T11:01:36.769Z,39.30
2018-02-09T11:04:04.222Z,39.80
2018-02-09T11:06:32.396Z,40.40
2018-02-09T11:08:59.855Z,41.10
2018-02-09T11:11:27.321Z,42.90
2018-02-09T11:13:54.762Z,41.10
2018-02-09T11:16:22.204Z,42.70
2018-02-09T11:18:49.662Z,44.92
2018-02-09T11:21:17.087Z,41.90
2018-02-09T11:23:44.535Z,41.63
2018-02-09T11:26:11.973Z,41.70
2018-02-09T11:28:39.416Z,42.10
2018-02-09T11:31:06.869Z,43.05
2018-02-09T11:33:34.326Z,44.47
2018-02-09T11:36:04.732Z,44.44
2018-02-09T11:38:32.612Z,44.20
2018-02-09T11:41:00.130Z,44.60
2018-02-09T11:43:27.618Z,44.20
2018-02-09T11:45:55.090Z,43.43
2018-02-09T11:48:22.545Z,44.53
2018-02-09T11:50:50.090Z,41.70
2018-02-09T11:53:17.537Z,41.60
2018-02-09T11:55:45.000Z,43.13
2018-02-09T11:58:12.459Z,45.73
2018-02-09T12:00:39.916Z,44.70
2018-02-09T12:03:07.417Z,43.87
2018-02-09T12:05:34.864Z,45.77
2018-02-09T12:08:02.520Z,40.33
2018-02-09T12:10:30.059Z,43.97
2018-02-09T12:12:57.525Z,42.13
2018-02-09T12:15:24.971Z,43.80
2018-02-09T12:17:52.433Z,43.50
2018-02-09T12:20:19.948Z,42.13
2018-02-09T12:22:47.403Z,43.47
2018-02-09T12:25:14.954Z,44.13
2018-02-09T12:27:42.458Z,44.07
2018-02-09T12:30:09.972Z,41.43
2018-02-09T12:32:38.046Z,42.13
2018-02-09T12:35:05.504Z,41.83
2018-02-09T12:37:33.004Z,44.20
2018-02-09T12:40:00.473Z,41.20
2018-02-09T12:42:27.944Z,41.30
2018-02-09T12:44:55.409Z,44.20
2018-02-09T12:47:22.866Z,43.23
2018-02-09T12:49:50.340Z,42.50
2018-02-09T12:52:17.775Z,41.80
2018-02-09T12:54:45.217Z,41.80
2018-02-09T12:57:12.721Z,39.95
2018-02-09T12:59:40.214Z,36.87
2018-02-09T13:02:07.716Z,38.27
2018-02-09T13:04:35.223Z,39.23
2018-02-09T13:07:02.933Z,38.33
2018-02-09T13:09:30.469Z,39.37
2018-02-09T13:11:57.916Z,40.55
2018-02-09T13:14:37.153Z,43.90
2018-02-09T13:17:04.588Z,37.73
2018-02-09T13:19:32.936Z,39.03
2018-02-09T13:22:00.372Z,38.57
2018-02-09T13:24:27.821Z,41.03
2018-02-09T13:26:55.253Z,38.83
2018-02-09T13:29:22.740Z,36.90
2018-02-09T13:31:50.171Z,39.30
2018-02-09T13:34:17.643Z,39.00
2018-02-09T13:50:25.730Z,34.60
2018-02-09T13:52:53.190Z,35.10
2018-02-09T13:55:20.644Z,35.88
2018-02-09T13:57:48.130Z,35.35
2018-02-09T14:00:15.571Z,37.03
2018-02-09T14:02:43.068Z,35.08
2018-02-09T14:05:10.496Z,37.63
2018-02-09T14:07:38.312Z,37.40
2018-02-09T14:10:05.779Z,35.77
2018-02-09T14:12:33.241Z,36.57
2018-02-09T14:15:00.676Z,34.80
2018-02-09T14:17:28.135Z,38.70
2018-02-09T14:19:55.585Z,36.73
2018-02-09T14:22:23.088Z,35.80
2018-02-09T14:24:50.526Z,37.30
2018-02-09T14:27:18.039Z,37.07
2018-02-09T14:29:45.519Z,39.23
2018-02-09T14:32:12.956Z,37.77
2018-02-09T14:34:40.398Z,38.80
2018-02-09T14:37:07.848Z,35.95
2018-02-09T14:39:35.295Z,35.60
2018-02-09T14:42:03.261Z,36.00
2018-02-09T14:44:30.712Z,37.53
2018-02-09T14:46:58.169Z,34.10
2018-02-09T14:49:25.739Z,37.47
2018-02-09T14:51:53.158Z,35.75
2018-02-09T14:54:20.619Z,32.53
2018-02-09T14:56:48.056Z,33.97
2018-02-09T14:59:15.531Z,33.65
2018-02-09T15:01:43.009Z,34.50
2018-02-09T15:04:10.464Z,34.47
2018-02-09T15:06:37.945Z,34.83
2018-02-09T15:09:05.384Z,37.93
2018-02-09T15:11:34.320Z,35.45
2018-02-09T15:14:01.745Z,35.67
2018-02-09T15:16:29.252Z,38.60
2018-02-09T15:18:56.713Z,37.50
2018-02-09T15:21:24.176Z,38.47
2018-02-09T15:23:51.642Z,38.03
2018-02-09T15:26:19.135Z,37.40
2018-02-09T15:28:46.588Z,37.80
2018-02-09T15:31:14.121Z,39.30
2018-02-09T15:33:41.572Z,36.03
2018-02-09T15:36:09.036Z,35.90
2018-02-09T15:38:36.474Z,36.10
2018-02-09T15:41:03.923Z,37.47
2018-02-09T15:43:31.370Z,35.70
2018-02-09T15:45:58.797Z,33.10
2018-02-09T15:48:26.259Z,32.90
2018-02-09T15:50:53.733Z,32.23
2018-02-09T15:53:21.186Z,33.10
2018-02-09T15:55:48.660Z,33.33
2018-02-09T15:58:16.108Z,33.50
2018-02-09T16:00:43.563Z,31.20
2018-02-09T16:03:11.079Z,32.87
2018-02-09T16:05:39.512Z,31.47
2018-02-09T16:08:06.986Z,29.77
2018-02-09T16:10:34.420Z,31.07
2018-02-09T16:13:01.888Z,31.30
2018-02-09T16:15:29.377Z,30.40
2018-02-09T16:17:56.822Z,30.87
2018-02-09T16:20:24.265Z,32.10
2018-02-09T16:22:51.774Z,29.90
2018-02-09T16:25:19.720Z,31.02
2018-02-09T16:27:53.466Z,29.58
2018-02-09T16:30:22.060Z,30.47
2018-02-09T16:32:49.610Z,30.42
2018-02-09T16:35:17.035Z,28.07
2018-02-09T16:37:44.466Z,29.87
2018-02-09T16:40:11.956Z,31.23
2018-02-09T16:42:39.453Z,31.33
2018-02-09T16:45:06.919Z,28.13
2018-02-09T16:47:34.465Z,28.67
2018-02-09T16:50:01.917Z,30.20
2018-02-09T16:52:29.350Z,30.40
2018-02-09T16:54:56.804Z,28.92
2018-02-09T16:57:24.329Z,29.00
2018-02-09T16:59:51.947Z,30.33
2018-02-09T17:02:19.600Z,29.35
2018-02-09T17:04:47.065Z,30.02
2018-02-09T17:07:14.508Z,30.20
2018-02-09T17:09:41.979Z,30.27
2018-02-09T17:12:09.443Z,29.00
2018-02-09T17:14:36.919Z,60.67
2018-02-09T17:17:04.431Z,35.80
2018-02-09T17:19:31.918Z,33.10
2018-02-09T17:21:59.379Z,31.50
2018-02-09T17:24:26.818Z,29.50
2018-02-09T17:26:54.736Z,30.20
2018-02-09T17:29:22.194Z,31.00
2018-02-09T17:31:49.671Z,29.33
2018-02-09T17:34:17.113Z,32.70
2018-02-09T17:36:44.711Z,32.38
2018-02-09T17:39:12.141Z,29.67
2018-02-09T17:41:39.656Z,29.80
2018-02-09T17:44:07.286Z,28.55
2018-02-09T17:46:34.806Z,31.70
2018-02-09T17:49:02.244Z,27.83
2018-02-09T17:51:29.791Z,29.37
2018-02-09T17:53:57.228Z,28.57
2018-02-09T17:56:24.693Z,29.57
2018-02-09T17:58:52.152Z,28.90
2018-02-09T18:01:19.803Z,28.33
2018-02-09T18:03:47.257Z,29.93
2018-02-09T18:06:14.730Z,30.88
2018-02-09T18:08:42.184Z,29.23
2018-02-09T18:11:09.644Z,29.60
2018-02-09T18:13:40.889Z,33.60
2018-02-09T18:16:10.374Z,28.62
2018-02-09T18:18:38.047Z,28.57
2018-02-09T18:21:05.614Z,26.83
2018-02-09T18:23:33.121Z,29.37
2018-02-09T18:26:00.610Z,29.63
2018-02-09T18:28:28.118Z,28.42
2018-02-09T18:30:55.668Z,40.27
2018-02-09T18:33:23.133Z,34.73
2018-02-09T18:35:50.557Z,33.97
2018-02-09T18:38:18.033Z,28.60
2018-02-09T18:40:45.476Z,31.40
2018-02-09T18:43:13.028Z,31.35
2018-02-09T18:45:40.452Z,26.97
2018-02-09T18:48:07.876Z,29.60
2018-02-09T18:50:35.600Z,30.55
2018-02-09T18:53:03.048Z,27.23
2018-02-09T18:55:30.498Z,29.93
2018-02-09T18:57:58.067Z,35.67
2018-02-09T19:00:25.521Z,31.87
2018-02-09T19:02:52.970Z,31.80
2018-02-09T19:05:20.486Z,34.97
2018-02-09T19:07:47.956Z,30.48
2018-02-09T19:10:15.439Z,33.30
2018-02-09T19:12:42.876Z,29.10
2018-02-09T19:15:10.337Z,32.87
2018-02-09T19:17:37.778Z,30.00
2018-02-09T19:20:05.372Z,30.20
2018-02-09T19:22:32.800Z,28.13
2018-02-09T19:25:00.366Z,30.00
2018-02-09T19:27:27.803Z,28.80
2018-02-09T19:29:55.337Z,28.70
2018-02-09T19:32:23.301Z,29.12
2018-02-09T19:34:50.757Z,27.87
2018-02-09T19:37:18.215Z,29.35
2018-02-09T19:39:45.696Z,39.07
2018-02-09T19:42:13.133Z,29.98
2018-02-09T19:44:40.636Z,27.43
2018-02-09T19:47:08.096Z,28.73
2018-02-09T19:49:35.539Z,29.23
2018-02-09T19:52:02.996Z,27.13
2018-02-09T19:54:30.437Z,29.90
2018-02-09T19:56:57.893Z,28.13
2018-02-09T19:59:25.337Z,28.47
2018-02-09T20:01:52.785Z,29.43
2018-02-09T20:04:20.242Z,28.00
2018-02-09T20:06:47.735Z,29.00
2018-02-09T20:09:15.228Z,27.03
2018-02-09T20:11:42.737Z,28.13
2018-02-09T20:14:10.241Z,27.40
2018-02-09T20:16:37.696Z,30.20
2018-02-09T20:19:05.134Z,26.90
2018-02-09T20:21:32.656Z,29.30
2018-02-09T20:24:00.111Z,29.50
2018-02-09T20:26:27.565Z,28.23
2018-02-09T20:28:55.036Z,27.93
2018-02-09T20:31:22.534Z,28.93
2018-02-09T20:33:50.023Z,28.10
2018-02-09T20:36:17.533Z,28.37
2018-02-09T20:38:45.007Z,26.67
2018-02-09T20:41:12.669Z,29.40
2018-02-09T20:43:40.138Z,28.13
2018-02-09T20:46:07.562Z,30.03
2018-02-09T20:48:35.404Z,29.10
2018-02-09T20:51:02.840Z,29.53
2018-02-09T20:53:30.291Z,30.10
2018-02-09T20:55:57.757Z,28.87
2018-02-09T20:58:25.204Z,29.73
2018-02-09T21:00:52.660Z,27.80
2018-02-09T21:03:20.131Z,28.80
2018-02-09T21:05:47.588Z,28.77
2018-02-09T21:08:15.031Z,30.70
2018-02-09T21:10:42.473Z,27.08
2018-02-09T21:13:09.964Z,28.16
2018-02-09T21:15:37.406Z,29.43
2018-02-09T21:18:05.373Z,28.42
2018-02-09T21:20:33.877Z,29.50
2018-02-09T21:23:07.561Z,31.30
2018-02-09T21:25:35.415Z,29.17
2018-02-09T21:28:02.891Z,27.13
2018-02-09T21:30:30.357Z,28.80
2018-02-09T21:32:57.833Z,28.52
2018-02-09T21:35:25.284Z,28.47
2018-02-09T21:37:52.823Z,29.10
2018-02-09T21:40:20.360Z,30.60
2018-02-09T21:42:49.834Z,28.40
2018-02-09T21:45:17.339Z,28.87
2018-02-09T21:47:44.789Z,28.17
2018-02-09T21:50:12.239Z,28.50
2018-02-09T21:52:39.713Z,29.90
2018-02-09T21:55:07.181Z,29.77
2018-02-09T21:57:35.203Z,29.40
2018-02-09T22:00:02.809Z,30.60
2018-02-09T22:02:30.450Z,28.37
2018-02-09T22:04:58.037Z,28.30
2018-02-09T22:07:25.728Z,30.40
2018-02-09T22:09:54.441Z,29.58
2018-02-09T22:12:23.903Z,28.23
2018-02-09T22:14:51.425Z,30.90
2018-02-09T22:17:20.402Z,30.00
2018-02-09T22:19:48.574Z,29.70
2018-02-09T22:22:16.085Z,28.73
2018-02-09T22:24:43.784Z,31.07
2018-02-09T22:27:11.550Z,32.20
2018-02-09T22:29:39.213Z,32.67
2018-02-09T22:32:06.735Z,28.27
2018-02-09T22:34:35.295Z,31.27
2018-02-09T22:37:03.094Z,31.13
2018-02-09T22:39:30.593Z,29.47
2018-02-09T22:42:03.687Z,30.80
2018-02-09T22:44:31.255Z,31.73
2018-02-09T22:46:58.724Z,30.20
2018-02-09T22:49:26.161Z,32.28
2018-02-09T22:51:53.663Z,31.03
2018-02-09T22:54:21.253Z,30.90
2018-02-09T22:56:48.788Z,34.00
2018-02-09T22:59:16.333Z,31.35
2018-02-09T23:01:43.802Z,29.90
2018-02-09T23:04:11.253Z,31.20
2018-02-09T23:06:38.732Z,31.23
2018-02-09T23:09:06.165Z,31.13
2018-02-09T23:11:33.767Z,31.40
2018-02-09T23:14:01.397Z,33.03
2018-02-09T23:16:28.846Z,30.37
2018-02-09T23:18:56.309Z,32.22
2018-02-09T23:21:23.767Z,31.43
2018-02-09T23:23:51.240Z,32.83
2018-02-09T23:26:18.690Z,31.02
2018-02-09T23:28:46.137Z,30.40
2018-02-09T23:31:13.596Z,31.77
2018-02-09T23:33:41.174Z,31.90
2018-02-09T23:36:08.621Z,31.70
2018-02-09T23:38:36.148Z,31.47
2018-02-09T23:41:03.587Z,32.30
2018-02-09T23:43:31.070Z,30.77
2018-02-09T23:45:58.531Z,31.75
2018-02-09T23:48:26.009Z,29.70
2018-02-09T23:50:53.455Z,31.57
2018-02-09T23:53:20.920Z,32.00
